createdAt,value
2019-05-17T00:02:26.414Z,87.91
2019-05-17T00:04:56.867Z,87.92
2019-05-17T00:07:32.557Z,88.37
2019-05-17T00:10:02.692Z,88.95
2019-05-17T00:12:32.348Z,88.82
2019-05-17T00:15:07.095Z,88.81
2019-05-17T00:17:49.219Z,88.57
2019-05-17T00:20:26.632Z,88.40
2019-05-17T00:22:57.397Z,88.24
2019-05-17T00:25:27.517Z,88.10
2019-05-17T00:28:41.570Z,88.09
2019-05-17T00:31:11.906Z,88.07
2019-05-17T00:33:41.583Z,88.00
2019-05-17T00:36:13.150Z,87.85
2019-05-17T00:38:50.954Z,87.78
2019-05-17T00:41:22.825Z,87.73
2019-05-17T00:43:54.225Z,87.71
2019-05-17T00:46:32.843Z,87.99
2019-05-17T00:49:06.742Z,88.00
2019-05-17T00:51:36.917Z,87.92
2019-05-17T00:54:09.595Z,88.26
2019-05-17T00:56:42.635Z,88.39
2019-05-17T00:59:18.684Z,88.75
2019-05-17T01:01:49.342Z,88.84
2019-05-17T01:04:20.036Z,88.86
2019-05-17T01:06:49.793Z,89.25
2019-05-17T01:09:27.324Z,89.27
2019-05-17T01:12:01.926Z,89.51
2019-05-17T01:14:46.569Z,89.93
2019-05-17T01:17:16.807Z,89.90
2019-05-17T01:19:57.206Z,89.77
2019-05-17T01:22:28.275Z,89.26
2019-05-17T01:24:58.655Z,89.11
2019-05-17T01:27:31.115Z,88.57
2019-05-17T01:30:13.001Z,88.26
2019-05-17T01:32:43.315Z,88.18
2019-05-17T01:35:17.001Z,87.67
2019-05-17T01:37:47.706Z,87.72
2019-05-17T01:40:18.627Z,87.53
2019-05-17T01:42:48.306Z,87.53
2019-05-17T01:45:18.587Z,87.05
2019-05-17T01:47:51.096Z,86.74
2019-05-17T01:50:21.188Z,86.52
2019-05-17T01:52:51.103Z,86.22
2019-05-17T01:55:22.861Z,86.21
2019-05-17T01:58:03.026Z,86.45
2019-05-17T02:00:46.450Z,86.69
2019-05-17T02:03:14.655Z,86.75
2019-05-17T02:05:44.170Z,86.44
2019-05-17T02:08:13.821Z,86.00
2019-05-17T02:10:46.592Z,85.78
2019-05-17T02:13:16.572Z,85.92
2019-05-17T02:15:51.492Z,85.73
2019-05-17T02:18:21.915Z,85.99
2019-05-17T02:20:53.588Z,85.70
2019-05-17T02:23:23.203Z,85.65
2019-05-17T02:25:57.156Z,85.93
2019-05-17T02:28:27.975Z,86.01
2019-05-17T02:30:58.650Z,86.08
2019-05-17T02:33:28.351Z,86.01
2019-05-17T02:35:57.962Z,86.04
2019-05-17T02:38:27.570Z,85.86
2019-05-17T02:40:57.326Z,85.85
2019-05-17T02:43:33.878Z,86.06
2019-05-17T02:46:04.136Z,86.08
2019-05-17T02:48:42.784Z,85.92
2019-05-17T02:51:13.310Z,86.00
2019-05-17T02:53:43.452Z,86.06
2019-05-17T02:56:16.210Z,86.08
2019-05-17T02:58:45.906Z,86.04
2019-05-17T03:01:17.568Z,86.23
2019-05-17T03:03:47.429Z,86.44
2019-05-17T03:06:17.928Z,86.25
2019-05-17T03:08:52.262Z,86.24
2019-05-17T03:11:22.678Z,85.99
2019-05-17T03:14:35.874Z,86.12
2019-05-17T03:17:05.587Z,86.22
2019-05-17T03:19:43.723Z,85.90
2019-05-17T03:22:17.511Z,85.68
2019-05-17T03:25:13.208Z,86.08
2019-05-17T03:27:42.863Z,86.06
2019-05-17T03:30:16.909Z,86.17
2019-05-17T03:32:47.724Z,85.87
2019-05-17T03:35:27.346Z,86.18
2019-05-17T03:37:58.012Z,86.16
2019-05-17T03:41:17.151Z,85.67
2019-05-17T03:43:30.640Z,86.11
2019-05-17T03:46:02.731Z,85.93
2019-05-17T03:48:33.364Z,85.91
2019-05-17T03:51:03.059Z,86.03
2019-05-17T03:53:33.661Z,86.22
2019-05-17T03:56:05.124Z,86.10
2019-05-17T03:58:38.946Z,86.08
2019-05-17T04:01:08.597Z,85.76
2019-05-17T04:03:43.100Z,85.53
2019-05-17T04:06:13.351Z,85.57
2019-05-17T04:08:43.087Z,85.43
2019-05-17T04:11:25.776Z,85.05
2019-05-17T04:13:44.693Z,84.96
2019-05-17T04:16:14.512Z,84.46
2019-05-17T04:18:46.009Z,84.33
2019-05-17T04:21:23.395Z,84.39
2019-05-17T04:24:19.429Z,84.51
2019-05-17T04:26:52.005Z,84.51
2019-05-17T04:29:22.687Z,84.32
2019-05-17T04:31:54.637Z,84.67
2019-05-17T04:34:24.384Z,84.62
2019-05-17T04:36:54.056Z,84.59
2019-05-17T04:39:23.859Z,83.93
2019-05-17T04:41:54.920Z,83.48
2019-05-17T04:44:24.691Z,83.51
2019-05-17T04:46:54.182Z,83.55
2019-05-17T04:49:24.456Z,83.59
2019-05-17T04:51:54.246Z,83.32
2019-05-17T04:54:24.056Z,83.63
2019-05-17T04:56:54.197Z,83.02
2019-05-17T04:59:24.478Z,82.99
2019-05-17T05:01:54.390Z,82.92
2019-05-17T05:04:23.950Z,82.74
2019-05-17T05:06:53.467Z,83.02
2019-05-17T05:09:23.565Z,83.03
2019-05-17T05:12:00.826Z,82.79
2019-05-17T05:14:24.829Z,82.89
2019-05-17T05:16:54.259Z,82.83
2019-05-17T05:19:23.755Z,82.39
2019-05-17T05:21:53.946Z,82.60
2019-05-17T05:24:23.447Z,82.27
2019-05-17T05:26:53.144Z,82.10
2019-05-17T05:29:22.519Z,82.35
2019-05-17T05:31:52.219Z,82.16
2019-05-17T05:34:22.013Z,82.05
2019-05-17T05:36:52.572Z,82.18
2019-05-17T05:39:22.827Z,82.00
2019-05-17T05:42:06.089Z,82.20
2019-05-17T05:44:23.654Z,81.65
2019-05-17T05:46:53.339Z,81.74
2019-05-17T05:49:23.119Z,81.29
2019-05-17T05:51:52.994Z,81.08
2019-05-17T05:54:22.613Z,81.04
2019-05-17T05:56:53.212Z,81.13
2019-05-17T05:59:22.757Z,81.20
2019-05-17T06:01:52.701Z,80.57
2019-05-17T06:04:22.356Z,80.62
2019-05-17T06:06:52.285Z,81.10
2019-05-17T06:09:22.526Z,79.79
2019-05-17T06:11:52.169Z,80.20
2019-05-17T06:14:21.747Z,80.08
2019-05-17T06:16:51.988Z,79.96
2019-05-17T06:19:22.447Z,80.29
2019-05-17T06:21:52.223Z,80.19
2019-05-17T06:24:22.802Z,79.06
2019-05-17T06:26:52.572Z,79.02
2019-05-17T06:29:22.589Z,78.87
2019-05-17T06:31:52.257Z,78.54
2019-05-17T06:34:22.468Z,78.97
2019-05-17T06:36:52.831Z,78.71
2019-05-17T06:39:22.567Z,78.38
2019-05-17T06:41:52.335Z,77.54
2019-05-17T06:44:21.776Z,77.80
2019-05-17T06:46:51.899Z,77.31
2019-05-17T06:49:22.553Z,77.05
2019-05-17T06:51:52.623Z,76.69
2019-05-17T06:54:22.930Z,74.87
2019-05-17T06:56:52.715Z,74.25
2019-05-17T06:59:22.220Z,75.05
2019-05-17T07:01:52.289Z,74.86
2019-05-17T07:04:21.726Z,75.11
2019-05-17T07:07:10.792Z,74.43
2019-05-17T07:09:40.545Z,73.86
2019-05-17T07:12:10.628Z,74.42
2019-05-17T07:14:40.617Z,73.42
2019-05-17T07:17:10.056Z,74.13
2019-05-17T07:19:40.175Z,73.53
2019-05-17T07:22:09.733Z,73.46
2019-05-17T07:24:39.800Z,73.87
2019-05-17T07:27:10.115Z,72.53
2019-05-17T07:29:40.461Z,72.54
2019-05-17T07:32:09.971Z,72.34
2019-05-17T07:34:40.114Z,71.06
2019-05-17T07:37:10.460Z,72.61
2019-05-17T07:39:42.284Z,70.22
2019-05-17T07:42:12.349Z,70.04
2019-05-17T07:44:44.085Z,69.41
2019-05-17T07:47:14.084Z,68.28
2019-05-17T07:49:44.110Z,68.34
2019-05-17T07:52:13.876Z,67.06
2019-05-17T07:54:43.558Z,67.82
2019-05-17T07:57:15.601Z,66.91
2019-05-17T07:59:47.559Z,67.34
2019-05-17T08:02:30.678Z,67.41
2019-05-17T08:05:06.261Z,67.63
2019-05-17T08:07:41.966Z,68.39
2019-05-17T08:10:12.775Z,66.56
2019-05-17T08:12:42.612Z,65.11
2019-05-17T08:15:12.504Z,65.41
2019-05-17T08:17:42.525Z,66.27
2019-05-17T08:20:13.224Z,67.61
2019-05-17T08:22:42.841Z,66.74
2019-05-17T08:25:13.496Z,66.57
2019-05-17T08:27:44.307Z,66.71
2019-05-17T08:30:17.030Z,66.11
2019-05-17T08:32:46.797Z,66.72
2019-05-17T08:35:17.009Z,63.95
2019-05-17T08:37:46.764Z,64.19
2019-05-17T08:40:20.039Z,64.07
2019-05-17T08:42:49.888Z,63.23
2019-05-17T08:45:20.773Z,61.80
2019-05-17T08:47:53.378Z,60.31
2019-05-17T08:50:24.322Z,58.97
2019-05-17T08:52:54.040Z,59.23
2019-05-17T08:55:23.761Z,58.28
2019-05-17T08:57:54.247Z,57.31
2019-05-17T09:00:24.507Z,53.51
2019-05-17T09:02:54.477Z,47.10
2019-05-17T09:05:25.045Z,45.94
2019-05-17T09:07:55.744Z,48.85
2019-05-17T09:10:26.481Z,48.43
2019-05-17T09:12:56.434Z,50.66
2019-05-17T09:15:26.510Z,51.72
2019-05-17T09:17:56.496Z,52.24
2019-05-17T09:20:26.667Z,52.86
2019-05-17T09:22:56.972Z,50.58
2019-05-17T09:25:27.109Z,48.06
2019-05-17T09:27:56.923Z,46.23
2019-05-17T09:30:31.401Z,45.70
2019-05-17T09:33:00.451Z,41.21
2019-05-17T09:35:30.656Z,42.11
2019-05-17T09:38:00.702Z,41.16
2019-05-17T09:40:31.089Z,44.03
2019-05-17T09:43:03.925Z,43.50
2019-05-17T09:45:35.012Z,42.98
2019-05-17T09:48:05.217Z,42.42
2019-05-17T09:50:35.854Z,40.92
2019-05-17T09:53:05.655Z,41.27
2019-05-17T09:55:35.645Z,41.32
2019-05-17T09:58:06.972Z,39.58
2019-05-17T10:00:38.095Z,41.09
2019-05-17T10:03:10.036Z,39.72
2019-05-17T10:05:41.059Z,40.78
2019-05-17T10:08:11.177Z,40.15
2019-05-17T10:10:41.465Z,41.85
2019-05-17T10:13:11.886Z,42.61
2019-05-17T10:15:42.060Z,40.58
2019-05-17T10:18:15.439Z,39.14
2019-05-17T10:20:46.010Z,40.22
2019-05-17T10:23:19.506Z,39.72
2019-05-17T10:25:49.029Z,41.60
2019-05-17T10:28:20.543Z,40.56
2019-05-17T10:30:52.352Z,40.83
2019-05-17T10:33:22.251Z,40.48
2019-05-17T10:35:52.726Z,38.54
2019-05-17T10:38:22.607Z,39.67
2019-05-17T10:40:52.590Z,38.33
2019-05-17T10:43:46.525Z,39.64
2019-05-17T10:46:16.733Z,39.74
2019-05-17T10:48:46.959Z,40.20
2019-05-17T10:51:17.042Z,40.87
2019-05-17T10:53:47.121Z,39.51
2019-05-17T10:56:19.438Z,40.20
2019-05-17T10:58:49.349Z,40.90
2019-05-17T11:01:20.194Z,40.03
2019-05-17T11:03:50.410Z,38.57
2019-05-17T11:06:20.428Z,39.23
2019-05-17T11:08:50.586Z,39.96
2019-05-17T11:11:20.687Z,39.81
2019-05-17T11:13:53.023Z,39.54
2019-05-17T11:16:22.248Z,39.57
2019-05-17T11:18:53.197Z,39.38
2019-05-17T11:21:23.137Z,37.45
2019-05-17T11:23:53.404Z,37.20
2019-05-17T11:26:23.279Z,37.54
2019-05-17T11:28:53.435Z,38.42
2019-05-17T11:31:24.185Z,37.56
2019-05-17T11:33:54.214Z,36.39
2019-05-17T11:36:23.577Z,37.18
2019-05-17T11:38:52.837Z,37.70
2019-05-17T11:41:22.426Z,38.04
2019-05-17T11:43:52.236Z,39.90
2019-05-17T11:46:35.330Z,42.63
2019-05-17T11:48:53.470Z,42.19
2019-05-17T11:51:22.937Z,41.81
2019-05-17T11:53:52.317Z,41.92
2019-05-17T11:56:22.120Z,40.08
2019-05-17T11:58:51.759Z,40.98
2019-05-17T12:01:21.622Z,39.67
2019-05-17T12:03:51.498Z,37.53
2019-05-17T12:06:21.006Z,37.57
2019-05-17T12:08:50.380Z,37.96
2019-05-17T12:11:20.081Z,39.31
2019-05-17T12:13:49.501Z,40.56
2019-05-17T12:16:19.305Z,41.31
2019-05-17T12:18:48.761Z,41.88
2019-05-17T12:21:18.526Z,42.07
2019-05-17T12:23:48.148Z,41.92
2019-05-17T12:26:17.872Z,41.51
2019-05-17T12:28:47.377Z,42.03
2019-05-17T12:31:19.230Z,43.21
2019-05-17T12:33:48.607Z,43.70
2019-05-17T12:36:18.063Z,44.09
2019-05-17T12:38:49.093Z,44.52
2019-05-17T12:41:19.050Z,45.17
2019-05-17T12:43:48.412Z,43.40
2019-05-17T12:46:18.190Z,43.53
2019-05-17T12:48:47.553Z,44.88
2019-05-17T12:51:16.880Z,44.61
2019-05-17T12:53:46.513Z,44.26
2019-05-17T12:56:15.902Z,44.64
2019-05-17T12:58:46.326Z,45.19
2019-05-17T13:01:16.093Z,46.22
2019-05-17T13:03:45.892Z,45.67
2019-05-17T13:06:15.496Z,45.83
2019-05-17T13:08:45.428Z,45.22
2019-05-17T13:11:15.165Z,45.18
2019-05-17T13:13:44.682Z,45.49
2019-05-17T13:16:18.002Z,45.49
2019-05-17T13:18:46.823Z,45.66
2019-05-17T13:21:16.491Z,45.54
2019-05-17T13:23:45.866Z,45.25
2019-05-17T13:26:15.470Z,43.62
2019-05-17T13:28:45.306Z,43.27
2019-05-17T13:31:15.093Z,44.15
2019-05-17T13:33:44.601Z,43.77
2019-05-17T13:36:13.883Z,43.69
2019-05-17T13:38:43.622Z,43.24
2019-05-17T13:41:12.908Z,43.31
2019-05-17T13:43:43.277Z,43.10
2019-05-17T13:46:13.628Z,42.66
2019-05-17T13:48:43.904Z,42.38
2019-05-17T13:51:13.704Z,42.37
2019-05-17T13:53:43.002Z,42.66
2019-05-17T13:56:12.719Z,42.36
2019-05-17T13:58:42.021Z,42.26
2019-05-17T14:01:11.856Z,43.13
2019-05-17T14:03:41.507Z,44.81
2019-05-17T14:06:10.848Z,44.06
2019-05-17T14:08:40.189Z,45.12
2019-05-17T14:11:09.520Z,44.62
2019-05-17T14:13:38.948Z,44.40
2019-05-17T14:16:08.735Z,45.40
2019-05-17T14:18:38.193Z,44.15
2019-05-17T14:21:07.745Z,45.28
2019-05-17T14:23:37.511Z,46.23
2019-05-17T14:26:07.059Z,47.20
2019-05-17T14:28:36.393Z,46.51
2019-05-17T14:31:06.301Z,46.39
2019-05-17T14:33:35.728Z,45.63
2019-05-17T14:36:05.857Z,46.38
2019-05-17T14:38:36.964Z,45.20
2019-05-17T14:41:08.497Z,45.20
2019-05-17T14:43:38.284Z,44.06
2019-05-17T14:46:07.568Z,42.71
2019-05-17T14:48:38.106Z,42.82
2019-05-17T14:51:08.505Z,43.60
2019-05-17T14:53:38.222Z,44.97
2019-05-17T14:56:07.775Z,45.56
2019-05-17T14:58:46.344Z,45.92
2019-05-17T15:01:16.266Z,44.98
2019-05-17T15:03:46.587Z,44.69
2019-05-17T15:06:16.682Z,43.41
2019-05-17T15:08:46.454Z,42.29
2019-05-17T15:11:16.902Z,41.72
2019-05-17T15:13:46.981Z,41.21
2019-05-17T15:16:16.368Z,40.89
2019-05-17T15:18:45.983Z,41.09
2019-05-17T15:21:15.332Z,40.96
2019-05-17T15:23:44.612Z,41.53
2019-05-17T15:26:15.141Z,40.62
2019-05-17T15:28:44.865Z,41.12
2019-05-17T15:31:14.179Z,40.52
2019-05-17T15:33:45.512Z,41.34
2019-05-17T15:36:14.873Z,39.51
2019-05-17T15:38:44.501Z,40.04
2019-05-17T15:41:14.314Z,41.03
2019-05-17T15:43:45.495Z,41.44
2019-05-17T15:46:14.794Z,42.10
2019-05-17T15:48:44.646Z,42.28
2019-05-17T15:51:14.028Z,42.52
2019-05-17T15:53:43.481Z,42.19
2019-05-17T15:56:13.494Z,42.60
2019-05-17T15:58:43.153Z,42.28
2019-05-17T16:01:13.027Z,42.14
2019-05-17T16:03:42.469Z,41.53
2019-05-17T16:06:13.105Z,41.20
2019-05-17T16:08:42.455Z,40.57
2019-05-17T16:11:11.819Z,41.26
2019-05-17T16:16:09.808Z,40.38
2019-05-17T16:18:39.816Z,39.77
2019-05-17T16:21:09.443Z,39.23
2019-05-17T16:23:39.264Z,39.90
2019-05-17T16:26:08.667Z,40.36
2019-05-17T16:28:38.229Z,40.10
2019-05-17T16:31:07.632Z,40.18
2019-05-17T16:33:37.183Z,40.55
2019-05-17T16:36:06.856Z,41.37
2019-05-17T16:38:36.937Z,41.36
2019-05-17T16:41:06.688Z,41.29
2019-05-17T16:43:35.934Z,40.69
2019-05-17T16:46:05.384Z,40.88
2019-05-17T16:48:35.198Z,41.01
2019-05-17T16:51:05.548Z,41.55
2019-05-17T16:53:35.641Z,41.51
2019-05-17T16:56:05.180Z,41.90
2019-05-17T16:58:34.887Z,43.12
2019-05-17T17:01:04.769Z,43.59
2019-05-17T17:03:44.130Z,43.80
2019-05-17T17:06:10.131Z,44.11
2019-05-17T17:08:38.267Z,43.81
2019-05-17T17:11:07.716Z,42.85
2019-05-17T17:13:37.084Z,42.60
2019-05-17T17:16:06.736Z,42.46
2019-05-17T17:18:37.151Z,42.91
2019-05-17T17:21:06.820Z,43.00
2019-05-17T17:23:36.317Z,42.89
2019-05-17T17:26:06.328Z,43.23
2019-05-17T17:28:36.489Z,43.07
2019-05-17T17:31:07.774Z,43.38
2019-05-17T17:33:37.553Z,43.36
2019-05-17T17:36:07.391Z,43.14
2019-05-17T17:38:37.246Z,43.18
2019-05-17T17:41:07.291Z,43.13
2019-05-17T17:43:37.421Z,43.61
2019-05-17T17:46:06.898Z,43.38
2019-05-17T17:48:36.328Z,43.50
2019-05-17T17:51:05.971Z,44.08
2019-05-17T17:53:35.457Z,44.10
2019-05-17T17:56:05.426Z,44.00
2019-05-17T17:58:35.735Z,44.14
2019-05-17T18:01:05.359Z,44.61
2019-05-17T18:03:34.819Z,45.62
2019-05-17T18:06:04.691Z,46.22
2019-05-17T18:08:34.782Z,46.18
2019-05-17T18:11:04.442Z,46.78
2019-05-17T18:13:33.724Z,46.52
2019-05-17T18:16:03.173Z,46.32
2019-05-17T18:18:32.658Z,46.65
2019-05-17T18:21:03.294Z,46.54
2019-05-17T18:23:33.842Z,46.43
2019-05-17T18:26:03.730Z,46.79
2019-05-17T18:28:33.096Z,47.34
2019-05-17T18:31:03.451Z,47.94
2019-05-17T18:33:32.834Z,48.44
2019-05-17T18:36:02.879Z,48.96
2019-05-17T18:38:35.022Z,48.85
2019-05-17T18:41:08.529Z,49.07
2019-05-17T18:43:38.333Z,49.77
2019-05-17T18:46:08.393Z,50.19
2019-05-17T18:48:37.882Z,50.30
2019-05-17T18:51:07.737Z,51.03
2019-05-17T18:53:37.400Z,51.26
2019-05-17T18:56:07.121Z,51.63
2019-05-17T18:58:39.512Z,52.01
2019-05-17T19:01:08.865Z,52.43
2019-05-17T19:03:38.938Z,52.64
2019-05-17T19:06:09.528Z,52.97
2019-05-17T19:08:39.345Z,53.42
2019-05-17T19:11:09.819Z,53.92
2019-05-17T19:13:39.176Z,54.34
2019-05-17T19:16:08.709Z,54.71
2019-05-17T19:18:38.244Z,54.92
2019-05-17T19:21:07.900Z,55.51
2019-05-17T19:23:37.816Z,55.74
2019-05-17T19:26:07.949Z,56.09
2019-05-17T19:28:37.348Z,56.19
2019-05-17T19:31:08.047Z,56.19
2019-05-17T19:33:37.883Z,56.51
2019-05-17T19:36:07.756Z,56.96
2019-05-17T19:38:37.726Z,57.26
2019-05-17T19:41:07.327Z,57.84
2019-05-17T19:43:37.268Z,58.25
2019-05-17T19:46:06.621Z,58.51
2019-05-17T19:48:39.258Z,58.80
2019-05-17T19:51:08.537Z,59.03
2019-05-17T19:53:39.300Z,59.33
2019-05-17T19:56:09.303Z,59.64
2019-05-17T19:58:39.183Z,60.02
2019-05-17T20:01:08.572Z,60.20
2019-05-17T20:03:40.879Z,60.27
2019-05-17T20:06:10.806Z,60.36
2019-05-17T20:08:41.144Z,60.37
2019-05-17T20:11:10.695Z,60.51
2019-05-17T20:13:40.865Z,60.87
2019-05-17T20:16:12.695Z,61.10
2019-05-17T20:18:42.122Z,61.47
2019-05-17T20:21:12.551Z,61.50
2019-05-17T20:23:43.767Z,61.79
2019-05-17T20:26:13.890Z,62.10
2019-05-17T20:28:43.681Z,62.51
2019-05-17T20:31:13.262Z,62.80
2019-05-17T20:33:43.209Z,62.93
2019-05-17T20:36:13.196Z,63.20
2019-05-17T20:38:42.986Z,63.24
2019-05-17T20:41:13.201Z,63.38
2019-05-17T20:43:43.687Z,63.70
2019-05-17T20:46:13.036Z,64.04
2019-05-17T20:48:42.835Z,64.39
2019-05-17T20:51:12.233Z,64.58
2019-05-17T20:53:42.061Z,64.78
2019-05-17T20:56:11.442Z,65.00
2019-05-17T20:58:40.877Z,65.09
2019-05-17T21:01:10.864Z,65.21
2019-05-17T21:03:40.179Z,65.50
2019-05-17T21:06:10.912Z,65.77
2019-05-17T21:08:46.156Z,66.01
2019-05-17T21:11:14.421Z,66.23
2019-05-17T21:13:43.824Z,66.52
2019-05-17T21:16:14.552Z,66.71
2019-05-17T21:18:44.422Z,66.96
2019-05-17T21:21:14.530Z,67.15
2019-05-17T21:23:44.595Z,67.63
2019-05-17T21:26:15.023Z,67.71
2019-05-17T21:28:47.200Z,67.94
2019-05-17T21:31:17.264Z,68.06
2019-05-17T21:33:46.655Z,68.09
2019-05-17T21:36:16.391Z,68.12
2019-05-17T21:38:45.698Z,68.42
2019-05-17T21:41:15.751Z,68.63
2019-05-17T21:43:46.016Z,68.81
2019-05-17T21:46:15.497Z,68.83
2019-05-17T21:48:45.167Z,69.01
2019-05-17T21:51:15.108Z,69.07
2019-05-17T21:53:44.572Z,69.02
2019-05-17T21:56:14.086Z,69.13
2019-05-17T21:58:43.857Z,69.23
2019-05-17T22:01:18.247Z,69.50
2019-05-17T22:03:47.557Z,69.73
2019-05-17T22:06:17.273Z,69.99
2019-05-17T22:08:46.611Z,70.17
2019-05-17T22:11:16.013Z,70.32
2019-05-17T22:13:45.726Z,70.55
2019-05-17T22:16:19.436Z,70.72
2019-05-17T22:18:47.208Z,71.06
2019-05-17T22:21:17.333Z,71.17
2019-05-17T22:23:47.205Z,71.57
2019-05-17T22:26:16.665Z,71.95
2019-05-17T22:28:46.417Z,72.02
2019-05-17T22:31:15.846Z,72.14
2019-05-17T22:33:45.257Z,72.41
2019-05-17T22:36:14.631Z,73.01
2019-05-17T22:38:44.088Z,72.97
2019-05-17T22:41:13.376Z,72.96
2019-05-17T22:43:43.015Z,73.19
2019-05-17T22:46:13.205Z,73.43
2019-05-17T22:48:43.002Z,73.72
2019-05-17T22:51:13.432Z,73.93
2019-05-17T22:53:43.722Z,74.08
2019-05-17T22:56:13.255Z,74.37
2019-05-17T22:58:42.678Z,74.32
2019-05-17T23:01:12.284Z,74.30
2019-05-17T23:07:10.903Z,74.42
2019-05-17T23:09:42.268Z,74.15
2019-05-17T23:12:11.988Z,74.28
2019-05-17T23:14:41.425Z,74.27
2019-05-17T23:17:12.634Z,74.29
2019-05-17T23:19:42.508Z,74.17
2019-05-17T23:22:11.861Z,73.90
2019-05-17T23:24:41.770Z,73.80
2019-05-17T23:27:11.158Z,73.69
2019-05-17T23:29:41.327Z,73.58
2019-05-17T23:32:10.873Z,73.59
2019-05-17T23:34:40.754Z,73.50
2019-05-17T23:37:10.857Z,73.40
2019-05-17T23:39:41.448Z,73.26
2019-05-17T23:42:10.939Z,73.38
2019-05-17T23:44:42.349Z,73.50
2019-05-17T23:47:12.395Z,73.42
2019-05-17T23:49:42.016Z,73.45
2019-05-17T23:52:12.302Z,73.39
2019-05-17T23:54:41.962Z,73.30
2019-05-17T23:57:11.637Z,73.18
2019-05-17T23:59:41.163Z,73.13
